°F

Nearby METAR Reports

 

KRME - Rome/Griffiss Af, New York, USA
Distance from station: NNW 12mi, 19km
Updated: 10/17/2017 4:53am
Clear
Clear
 Wind from calm
Wind: Calm
Temperature: 30°F , -1°C
Dew Point: 28°F , -2°C
Humidity: 93%
Barometer: 30.31 inHg , 1026.4 hPa
Clouds: Clear
Visibility: 10 miles , 16 km
2017/10/17 08:53 KRME 170853Z AUTO 00000KT 10SM CLR M01/M02 A3031 RMK AO2 SLP268 T10111017 53014 FZRANO $
KSYR - Syracuse, New York, USA
Distance from station: W 42mi, 67km
Updated: 10/17/2017 4:54am
Clear
Clear
 Wind from SE
Wind: SE 3 mph , 6 km/h
Temperature: 34°F , 1°C
Dew Point: 34°F , 1°C
Humidity: 100%
Barometer: 30.29 inHg , 1025.7 hPa
Clouds: Clear
Visibility: 10 miles , 16 km
2017/10/17 08:54 KSYR 170854Z 14003KT 10SM CLR 01/01 A3029 RMK AO2 SLP258 T00110006 53008 $
KN03 - Cortland, New York, USA
Distance from station: SW 58mi, 93km
Updated: 10/17/2017 5:35am
Clear
Clear
 Wind from calm
Wind: Calm
Temperature: 30°F , -1°C
Dew Point: 30°F , -1°C
Humidity: 100%
Barometer: 30.30 inHg , 1026.1 hPa
Clouds: Clear
Visibility: 10 miles , 16 km
2017/10/17 09:35 KN03 170935Z AUTO 00000KT 10SM CLR M01/M01 A3030 RMK AO2
 
KFZY - Fulton, New York, USA
Distance from station: WNW 59mi, 95km
Updated: 10/17/2017 4:54am
Clear
Clear
 Wind from varies
Wind: varies 3 mph , 6 km/h
Temperature: 34°F , 1°C
Dew Point: 30°F , -1°C
Humidity: 87%
Barometer: 30.28 inHg , 1025.4 hPa
Clouds: Clear
Visibility: 10 miles , 16 km
2017/10/17 08:54 KFZY 170854Z AUTO VRB03KT 10SM CLR 01/M01 A3028 RMK AO2 SLP258 I1000 I3000 T00061006 50004 $
KBGM - Binghamton, New York, USA
Distance from station: SSW 69mi, 112km
Updated: 10/17/2017 4:53am
Clear
Clear
 Wind from WNW
Wind: WNW 3 mph , 6 km/h
Temperature: 34°F , 1°C
Dew Point: 28°F , -2°C
Humidity: 81%
Barometer: 30.27 inHg , 1025.1 hPa
Clouds: Clear
Visibility: 10 miles , 16 km
2017/10/17 08:53 KBGM 170853Z AUTO 29003KT 10SM CLR 01/M02 A3027 RMK AO2 SLP262 T00061017 53014
KSCH - Schenectady Airp, New York, USA
Distance from station: ESE 70mi, 113km
Updated: 10/16/2017 9:55pm
NOT Current
Partly cloudy
Partly cloudy
 Wind from NNE
Wind: NNE 3 mph , 6 km/h
Temperature: 41°F , 5°C
Dew Point: 34°F , 1°C
Humidity: 76%
Barometer: 30.22 inHg , 1023.4 hPa
Clouds: Partly cloudy
Visibility: 10 miles , 16 km
Cloud details: Partly cloudy 6000 ft
2017/10/17 01:55 KSCH 170155Z AUTO 03003KT 10SM SCT060 05/01 A3022 RMK LAST
 
KGTB - Fort Drum/Wheele, New York, USA
Distance from station: NNW 72mi, 116km
Updated: 10/17/2017 4:56am
Clear
Clear
 Wind from SSE
Wind: SSE 3 mph , 6 km/h
Temperature: 32°F , 0°C
Dew Point: 28°F , -2°C
Humidity: 87%
Barometer: 30.24 inHg , 1024 hPa
Clouds: Clear
Visibility: 10 miles , 16 km
2017/10/17 08:56 KGTB 170856Z AUTO 15003KT 10SM CLR 00/M02 A3024 RMK AO2 SLP247 T00021017 $
KITH - Ithaca/Tompkins, New York, USA
Distance from station: SW 73mi, 117km
Updated: 10/17/2017 4:56am
Clear
Clear
 Wind from E
Wind: E 3 mph , 6 km/h
Temperature: 28°F , -2°C
Dew Point: 27°F , -3°C
Humidity: 93%
Barometer: 30.30 inHg , 1026.1 hPa
Clouds: Clear
Visibility: 10 miles , 16 km
2017/10/17 08:56 KITH 170856Z AUTO 08003KT 10SM CLR M02/M03 A3030 RMK AO2 SLP270 T10221033 53011
KART - Watertown, New York, USA
Distance from station: NNW 73mi, 118km
Updated: 10/17/2017 4:56am
Clear
Clear
 Wind from S
Wind: S 5 mph , 7 km/h
Temperature: 32°F , 0°C
Wind Chill: 27°F , -3°C
Dew Point: 30°F , -1°C
Humidity: 93%
Barometer: 30.27 inHg , 1025.1 hPa
Clouds: Clear
Visibility: 10 miles , 16 km
2017/10/17 08:56 KART 170856Z AUTO 18004KT 10SM CLR 00/M01 A3027 RMK AO2 SLP254 I3000 T00001011 51002
 
KALB - Albany, New York, USA
Distance from station: ESE 78mi, 125km
Updated: 10/17/2017 4:51am
Clear
Clear
 Wind from calm
Wind: Calm
Temperature: 36°F , 2°C
Dew Point: 30°F , -1°C
Humidity: 81%
Barometer: 30.29 inHg , 1025.7 hPa
Clouds: Clear
Visibility: 10 miles , 16 km
2017/10/17 08:51 KALB 170851Z 00000KT 10SM CLR 02/M01 A3029 RMK AO2 SLP260 T00221011 53014
KGFL - Glens Falls, New York, USA
Distance from station: ENE 85mi, 137km
Updated: 10/17/2017 4:53am
Clear
Clear
 Wind from calm
Wind: Calm
Temperature: 30°F , -1°C
Dew Point: 28°F , -2°C
Humidity: 93%
Barometer: 30.28 inHg , 1025.4 hPa
Clouds: Clear
Visibility: 10 miles , 16 km
2017/10/17 08:53 KGFL 170853Z AUTO 00000KT 10SM CLR M01/M02 A3028 RMK AO2 SLP259 T10111022 53015
KPEO - Penn Yan, New York, USA
Distance from station: WSW 95mi, 152km
Updated: 10/01/2017 9:02am
NOT Current
Partly cloudy
Partly cloudy
 Wind from SW
Wind: SW 6 mph , 9 km/h
Temperature: 46°F , 8°C
Wind Chill: 43°F , 6°C
Dew Point: 43°F , 6°C
Humidity: 87%
Barometer: 30.44 inHg , 1030.8 hPa
Clouds: Partly cloudy
Visibility: 10 miles , 16 km
Cloud details: Partly cloudy 300 ft
2017/10/01 13:02 KPEO 011302Z AUTO 22005KT 10SM SCT003 08/06 A3044 RMK AO2 T00780056 $
 
KMSV - Monticello, New York, USA
Distance from station: SSE 98mi, 158km
Updated: 10/17/2017 4:56am
Clear
Clear
 Wind from WSW
Wind: WSW 5 mph , 7 km/h
Temperature: 28°F , -2°C
Wind Chill: 22°F , -6°C
Dew Point: 27°F , -3°C
Humidity: 93%
Barometer: 30.26 inHg , 1024.7 hPa
Clouds: Clear
Visibility: 10 miles , 16 km
2017/10/17 08:56 KMSV 170856Z AUTO 25004KT 10SM CLR M02/M03 A3026 RMK AO2 SLP261 T10171028 53011 FZRANO